Time;durP1;ratioP1;P1;durP2;ratioP2;P2;SDS_P1;SDS_P2;PMS_P1;PMS_P2;Temp;Humidity;BMP_temperature;BMP_pressure;BME280_temperature;BME280_humidity;BME280_pressure;Samples;Min_cycle;Max_cycle;Signal;HPM_P1;HPM_P2
2023/12/09 00:00:46;;;;;;;7.73;6.80;;;4.50;99.90;;;4.21;63.16;94978.81;5061804;28;20448;-60
2023/12/09 00:03:13;;;;;;;8.60;6.87;;;4.50;99.90;;;4.22;63.15;94980.50;5059774;28;20472;-62
2023/12/09 00:05:41;;;;;;;12.43;6.00;;;4.50;99.90;;;4.23;63.32;94981.31;5062348;28;20863;-60
2023/12/09 00:08:08;;;;;;;8.30;6.43;;;4.50;99.90;;;4.24;63.41;94978.63;5062094;28;20823;-60
2023/12/09 00:10:35;;;;;;;8.77;7.00;;;4.50;99.90;;;4.23;62.89;94976.13;5059422;28;20979;-61
2023/12/09 00:13:03;;;;;;;9.40;7.37;;;4.50;99.90;;;4.22;63.02;94977.88;5062370;28;20692;-62
2023/12/09 00:15:31;;;;;;;9.80;7.37;;;4.50;99.90;;;4.22;63.12;94985.69;5061665;28;20990;-63
2023/12/09 00:18:00;;;;;;;8.43;6.67;;;4.50;99.90;;;4.24;63.23;94985.59;5059584;28;20472;-62
2023/12/09 00:20:27;;;;;;;8.60;6.57;;;4.50;99.90;;;4.25;63.14;94988.09;5061389;28;20455;-62
2023/12/09 00:22:55;;;;;;;11.43;7.83;;;4.50;99.90;;;4.26;63.44;94987.19;5062030;28;20798;-62
2023/12/09 00:25:22;;;;;;;11.77;8.57;;;4.50;99.90;;;4.26;63.57;94981.97;5059494;28;20448;-63
2023/12/09 00:27:49;;;;;;;10.37;7.43;;;4.50;99.90;;;4.26;63.41;94984.59;5061479;28;20498;-62
2023/12/09 00:30:17;;;;;;;12.80;8.73;;;4.50;99.90;;;4.25;63.53;94977.69;5062043;28;20524;-62
2023/12/09 00:32:44;;;;;;;9.50;7.33;;;4.50;99.90;;;4.25;63.39;94979.47;5059308;28;20468;-58
2023/12/09 00:35:14;;;;;;;9.03;7.07;;;4.50;99.90;;;4.24;63.53;94975.19;5061331;28;20492;-62
2023/12/09 00:37:41;;;;;;;10.73;8.20;;;4.60;99.90;;;4.23;63.43;94978.72;5061861;28;20892;-62
2023/12/09 00:40:10;;;;;;;8.50;7.37;;;4.50;99.90;;;4.20;63.32;94977.16;5059289;28;20840;-63
2023/12/09 00:42:37;;;;;;;12.40;8.30;;;4.50;99.90;;;4.18;63.32;94978.19;5061181;28;20559;-62
2023/12/09 00:45:06;;;;;;;11.80;8.30;;;4.50;99.90;;;4.16;63.48;94977.47;5061737;28;20455;-62
2023/12/09 00:47:33;;;;;;;12.10;8.40;;;4.40;99.90;;;4.14;63.19;94977.56;5055463;28;20495;-62
2023/12/09 00:50:01;;;;;;;8.37;6.77;;;4.40;99.90;;;4.09;63.12;94975.25;5060403;28;20446;-61
2023/12/09 00:52:29;;;;;;;8.63;6.83;;;4.40;99.90;;;4.05;63.24;94984.16;5061628;28;20529;-60
2023/12/09 00:54:56;;;;;;;9.20;6.57;;;4.30;99.90;;;4.01;63.25;94980.09;5056177;28;20448;-59
2023/12/09 00:57:24;;;;;;;11.20;7.27;;;4.30;99.90;;;3.98;62.73;94982.06;5060124;28;20529;-62
2023/12/09 00:59:51;;;;;;;10.33;7.13;;;4.30;99.90;;;3.94;63.32;94981.44;5061821;28;20509;-61
2023/12/09 01:02:19;;;;;;;8.70;7.30;;;4.20;99.90;;;3.90;63.04;94980.78;5055273;28;20472;-63
2023/12/09 01:04:46;;;;;;;10.90;7.47;;;4.20;99.90;;;3.88;63.47;94982.63;5060181;28;20447;-59
2023/12/09 01:07:14;;;;;;;16.10;8.77;;;4.20;99.90;;;3.84;63.35;94975.97;5061889;28;20506;-62
2023/12/09 01:09:42;;;;;;;14.10;9.03;;;4.10;99.90;;;3.83;63.65;94984.69;5055731;28;20459;-61
2023/12/09 01:12:10;;;;;;;14.70;9.13;;;4.10;99.90;;;3.81;63.56;94989.19;5059558;28;20482;-61
2023/12/09 01:14:37;;;;;;;13.83;9.77;;;4.10;99.90;;;3.77;63.47;94991.09;5061537;28;20454;-62
2023/12/09 01:17:06;;;;;;;16.07;9.90;;;4.10;99.90;;;3.74;63.85;94988.69;5058898;28;20467;-59
2023/12/09 01:19:33;;;;;;;13.17;8.77;;;4.10;99.90;;;3.72;63.70;94995.78;5059366;28;20521;-61
2023/12/09 01:22:01;;;;;;;16.03;10.03;;;4.00;99.90;;;3.68;63.72;94983.88;5061014;28;20463;-60
2023/12/09 01:24:28;;;;;;;11.87;8.83;;;4.00;99.90;;;3.66;63.86;94985.75;5059422;28;20474;-61
2023/12/09 01:26:57;;;;;;;16.67;10.10;;;4.00;99.90;;;3.64;63.70;94984.16;5059289;28;20500;-63
2023/12/09 01:29:24;;;;;;;16.20;9.03;;;3.90;99.90;;;3.61;63.80;94985.22;5061244;28;20458;-60
2023/12/09 01:31:52;;;;;;;11.40;8.10;;;3.90;99.90;;;3.57;64.16;94984.53;5059577;28;20479;-62
2023/12/09 01:34:19;;;;;;;15.40;9.30;;;3.90;99.90;;;3.56;63.95;94984.63;5059262;28;20478;-62
2023/12/09 01:36:46;;;;;;;11.87;9.27;;;3.80;99.90;;;3.55;64.09;94981.22;5057484;28;20534;-60
2023/12/09 01:39:14;;;;;;;17.90;9.53;;;3.90;99.90;;;3.56;64.16;94980.28;5060118;28;20546;-60
2023/12/09 01:41:41;;;;;;;11.23;8.30;;;3.90;99.90;;;3.56;64.15;94977.69;5060379;28;20542;-62
2023/12/09 01:44:11;;;;;;;17.10;10.00;;;3.80;99.90;;;3.54;64.28;94979.53;5058447;28;20572;-60
2023/12/09 01:46:38;;;;;;;15.53;9.93;;;3.90;99.90;;;3.54;64.07;94984.72;5059612;28;20455;-62
2023/12/09 01:49:05;;;;;;;19.27;9.97;;;3.90;99.90;;;3.54;64.12;94979.53;5060358;28;20447;-62
2023/12/09 01:51:33;;;;;;;14.00;9.47;;;3.80;99.90;;;3.53;64.12;94977.88;5058157;28;20440;-62
2023/12/09 01:54:00;;;;;;;10.60;8.20;;;3.90;99.90;;;3.53;63.95;94975.28;5060900;28;20814;-61
2023/12/09 01:56:28;;;;;;;10.80;7.30;;;3.80;99.90;;;3.52;64.15;94978.78;5060148;28;20545;-62
2023/12/09 01:58:55;;;;;;;13.40;8.73;;;3.80;99.90;;;3.52;64.00;94970.19;5057624;28;20456;-62
2023/12/09 02:01:24;;;;;;;11.87;7.73;;;3.80;99.90;;;3.52;64.24;94971.00;5059321;28;20451;-62
2023/12/09 02:03:51;;;;;;;14.73;8.77;;;3.80;99.90;;;3.52;nan;94968.41;5059937;28;21097;-60
2023/12/09 02:06:18;;;;;;;11.20;7.37;;;3.80;99.90;;;3.54;63.65;94971.72;5057825;28;20452;-59
2023/12/09 02:08:46;;;;;;;8.70;7.10;;;3.80;99.90;;;3.54;63.95;94969.13;5059487;28;20823;-60
2023/12/09 02:11:20;;;;;;;7.97;6.47;;;3.80;99.90;;;3.55;64.11;94969.97;5060059;28;20963;-61
2023/12/09 02:13:59;;;;;;;8.30;6.30;;;3.80;99.90;;;3.52;64.05;94971.00;5055092;28;20497;-59
2023/12/09 02:16:37;;;;;;;7.90;6.47;;;3.80;99.90;;;3.50;63.87;94972.88;5057606;28;20478;-63
2023/12/09 02:19:05;;;;;;;6.53;5.87;;;3.80;99.90;;;3.49;63.78;94971.19;5057708;28;20506;-61
2023/12/09 02:21:59;;;;;;;6.87;6.00;;;3.80;99.90;;;3.51;63.91;94974.50;5054155;28;20509;-62
2023/12/09 02:24:28;;;;;;;8.83;6.53;;;3.80;99.90;;;3.53;63.93;94971.81;5056307;28;20443;-61
2023/12/09 02:26:58;;;;;;;9.17;7.03;;;3.80;99.90;;;3.54;63.95;94973.50;5057707;28;20570;-62
2023/12/09 02:29:26;;;;;;;8.73;6.33;;;3.80;99.90;;;3.56;63.88;94967.28;5054800;28;20452;-60
2023/12/09 02:31:56;;;;;;;9.93;7.27;;;3.80;99.90;;;3.58;64.24;94965.41;5058555;28;20479;-60
2023/12/09 02:34:24;;;;;;;7.70;6.90;;;3.90;99.90;;;3.58;63.79;94951.59;5060128;28;20450;-60
2023/12/09 02:36:51;;;;;;;11.50;7.57;;;3.90;99.90;;;3.57;64.22;94955.94;5058070;28;20517;-59
2023/12/09 02:39:18;;;;;;;11.53;8.37;;;3.90;99.90;;;3.59;64.10;94954.09;5057950;28;20459;-59
2023/12/09 02:41:47;;;;;;;13.23;8.40;;;3.90;99.90;;;3.58;64.27;94955.00;5060408;28;20522;-59
2023/12/09 02:44:14;;;;;;;13.07;8.80;;;3.90;99.90;;;3.58;64.53;94957.63;5058570;28;20452;-59
2023/12/09 02:46:42;;;;;;;11.77;8.03;;;3.90;99.90;;;3.55;63.85;94955.19;5058064;28;20490;-61
2023/12/09 02:49:10;;;;;;;11.17;8.00;;;3.90;99.90;;;3.51;63.89;94950.28;5060222;28;20446;-61
2023/12/09 02:51:38;;;;;;;10.40;7.73;;;3.80;99.90;;;3.46;63.86;94950.56;5058491;28;20447;-63
2023/12/09 02:54:05;;;;;;;9.10;7.10;;;3.80;99.90;;;3.43;64.09;94950.75;5057949;28;20452;-60
2023/12/09 02:56:32;;;;;;;13.90;8.03;;;3.70;99.90;;;3.38;64.58;94951.03;5060093;28;20450;-62
2023/12/09 02:59:01;;;;;;;8.40;6.80;;;3.70;99.90;;;3.35;64.66;94953.00;5058694;28;20525;-59
2023/12/09 03:01:28;;;;;;;11.60;7.27;;;3.70;99.90;;;3.32;64.72;94948.81;5057594;28;20444;-62
2023/12/09 03:03:55;;;;;;;13.10;7.77;;;3.60;99.90;;;3.29;64.54;94946.41;5060440;28;20455;-62
2023/12/09 03:06:23;;;;;;;55.13;10.03;;;3.60;99.90;;;3.26;64.67;94953.56;5058529;28;20448;-61
2023/12/09 03:08:50;;;;;;;13.07;8.37;;;3.60;99.90;;;3.21;64.97;94946.88;5057586;28;20867;-60
2023/12/09 03:11:17;;;;;;;11.37;7.70;;;3.60;99.90;;;3.19;64.85;94953.94;5060219;28;20459;-60
2023/12/09 03:13:45;;;;;;;14.70;7.73;;;3.50;99.90;;;3.15;64.64;94947.25;5058690;28;20463;-59
2023/12/09 03:16:13;;;;;;;10.00;7.97;;;3.50;99.90;;;3.12;64.74;94952.63;5058246;28;20457;-59
2023/12/09 03:18:41;;;;;;;11.20;8.20;;;3.50;99.90;;;3.10;65.18;94949.31;5057462;28;21022;-59
2023/12/09 03:21:08;;;;;;;13.30;8.93;;;3.40;99.90;;;3.05;64.60;94946.13;5058755;28;20581;-63
2023/12/09 03:23:35;;;;;;;12.03;7.97;;;3.40;99.90;;;3.03;65.25;94955.78;5060126;28;20529;-61
2023/12/09 03:26:03;;;;;;;10.77;8.07;;;3.40;99.90;;;3.01;64.77;94960.25;5056641;28;20857;-61
2023/12/09 03:28:30;;;;;;;13.43;6.90;;;3.40;99.90;;;2.99;64.87;94957.75;5062210;28;20913;-59
2023/12/09 03:30:57;;;;;;;8.63;6.87;;;3.30;99.90;;;2.98;65.69;94956.06;5063332;28;20447;-58
2023/12/09 03:33:26;;;;;;;10.27;7.50;;;3.30;99.90;;;2.96;65.39;94962.25;5060463;28;20483;-61
2023/12/09 03:35:54;;;;;;;12.53;8.03;;;3.30;99.90;;;2.95;64.81;94963.22;5062155;28;20447;-59
2023/12/09 03:38:21;;;;;;;10.40;7.43;;;3.30;99.90;;;2.94;64.79;94964.13;5063177;28;20478;-62
2023/12/09 03:40:48;;;;;;;8.43;6.80;;;3.30;99.90;;;2.92;65.69;94958.19;5057062;28;20956;-62
2023/12/09 03:43:16;;;;;;;8.90;7.13;;;3.30;99.90;;;2.91;65.55;94948.72;5061993;28;20498;-60
2023/12/09 03:45:43;;;;;;;12.23;7.83;;;3.20;99.90;;;2.90;65.30;94953.09;5063100;28;20447;-59
2023/12/09 03:48:10;;;;;;;8.97;7.47;;;3.30;99.90;;;2.89;65.59;94959.19;5056359;28;20495;-59
2023/12/09 03:50:39;;;;;;;11.50;8.73;;;3.20;99.90;;;2.88;65.67;94962.72;5061676;28;20482;-62
2023/12/09 03:53:06;;;;;;;9.57;7.10;;;3.20;99.90;;;2.87;65.47;94954.09;5062806;28;20474;-63
2023/12/09 03:55:33;;;;;;;11.87;8.60;;;3.20;99.90;;;2.86;65.84;94965.41;5056950;28;20452;-58
2023/12/09 03:58:01;;;;;;;11.33;8.23;;;3.20;99.90;;;2.84;65.91;94969.03;5061214;28;20467;-59
2023/12/09 04:00:29;;;;;;;10.90;7.60;;;3.20;99.90;;;2.84;65.75;94974.22;5062707;28;20489;-61
2023/12/09 04:02:57;;;;;;;13.10;7.90;;;3.10;99.90;;;2.82;65.14;94976.91;5056692;28;20480;-59
2023/12/09 04:05:24;;;;;;;9.40;7.40;;;3.20;99.90;;;2.80;66.04;94968.38;5061278;28;20554;-63
2023/12/09 04:07:52;;;;;;;8.43;6.50;;;3.20;99.90;;;2.80;65.33;94970.97;5062744;28;20487;-62
2023/12/09 04:10:19;;;;;;;9.67;7.07;;;3.10;99.90;;;2.81;65.26;94974.41;5057508;28;20535;-62
2023/12/09 04:12:46;;;;;;;9.67;7.40;;;3.10;99.90;;;2.79;65.58;94973.66;5061180;28;20509;-59
2023/12/09 04:15:14;;;;;;;9.40;7.30;;;3.10;99.90;;;2.78;66.08;94984.97;5062529;28;20463;-62
2023/12/09 04:17:41;;;;;;;11.50;7.93;;;3.10;99.90;;;2.77;65.47;94981.53;5056090;28;20590;-60
2023/12/09 04:20:10;;;;;;;12.30;8.43;;;3.10;99.90;;;2.77;65.90;94980.69;5060803;28;20481;-62
2023/12/09 04:22:38;;;;;;;13.27;8.20;;;3.10;99.90;;;2.77;66.06;94980.69;5062571;28;20533;-60
2023/12/09 04:25:07;;;;;;;9.50;8.13;;;3.10;99.90;;;2.79;66.03;94984.91;5060283;28;20998;-63
2023/12/09 04:27:35;;;;;;;10.63;7.23;;;3.10;99.90;;;2.79;65.80;94982.28;5060102;28;20526;-60
2023/12/09 04:30:03;;;;;;;11.20;7.20;;;3.10;99.90;;;2.79;65.37;94981.44;5062246;28;20454;-61
2023/12/09 04:32:30;;;;;;;10.30;8.23;;;3.10;99.90;;;2.79;65.60;94977.09;5060550;28;20853;-60
2023/12/09 04:34:57;;;;;;;14.93;8.73;;;3.10;99.90;;;2.81;65.76;94984.81;5059870;28;20873;-62
2023/12/09 04:37:25;;;;;;;10.23;7.40;;;3.10;99.90;;;2.80;66.08;94978.75;5061938;28;21007;-59
2023/12/09 04:39:52;;;;;;;11.23;8.17;;;3.10;99.90;;;2.81;66.36;94983.03;5059920;28;20452;-59
2023/12/09 04:42:21;;;;;;;13.90;9.40;;;3.20;99.90;;;2.84;66.49;94989.81;5060142;28;20468;-60
2023/12/09 04:44:48;;;;;;;12.70;9.00;;;3.20;99.90;;;2.85;65.94;94994.94;5062034;28;20496;-62
2023/12/09 04:47:16;;;;;;;13.53;8.50;;;3.20;99.90;;;2.89;66.42;94989.56;5060274;28;20988;-60
2023/12/09 04:49:43;;;;;;;13.40;9.10;;;3.20;99.90;;;2.91;65.51;94985.91;5059563;28;20452;-63
2023/12/09 04:52:11;;;;;;;16.03;10.20;;;3.20;99.90;;;2.94;66.04;94995.31;5061936;28;20590;-63
2023/12/09 04:54:38;;;;;;;14.07;9.00;;;3.30;99.90;;;2.97;65.78;94992.53;5060193;28;20488;-62
2023/12/09 04:57:06;;;;;;;11.90;8.67;;;3.30;99.90;;;2.99;66.24;94993.25;5059333;28;20479;-62
2023/12/09 04:59:34;;;;;;;13.57;9.27;;;3.30;99.90;;;3.04;66.32;95006.84;5058990;28;20451;-61
2023/12/09 05:02:02;;;;;;;15.50;9.20;;;3.30;99.90;;;3.05;65.58;95004.13;5060306;28;21007;-60
2023/12/09 05:04:30;;;;;;;17.93;9.83;;;3.40;99.90;;;3.10;66.29;95008.22;5060313;28;20454;-63
2023/12/09 05:06:57;;;;;;;13.37;9.83;;;3.40;99.90;;;3.10;65.67;95009.06;5058998;28;20476;-62
2023/12/09 05:09:24;;;;;;;12.70;9.10;;;3.40;99.90;;;3.14;65.79;95012.31;5060340;28;20497;-62
2023/12/09 05:11:52;;;;;;;11.50;8.63;;;3.50;99.90;;;3.18;65.66;95006.00;5060517;28;20493;-59
2023/12/09 05:14:19;;;;;;;15.00;10.17;;;3.50;99.90;;;3.20;66.01;95010.16;5058395;28;20451;-60
2023/12/09 05:16:48;;;;;;;11.50;8.60;;;3.50;99.90;;;3.24;65.71;95010.84;5060157;28;21017;-59
2023/12/09 05:19:15;;;;;;;19.17;10.50;;;3.50;99.90;;;3.28;65.54;95016.69;5061426;28;20463;-60
2023/12/09 05:21:42;;;;;;;17.73;11.23;;;3.60;99.90;;;3.29;66.06;95015.78;5054483;28;20471;-58
2023/12/09 05:24:10;;;;;;;14.00;9.47;;;3.60;99.90;;;3.29;65.62;95013.16;5061810;28;20448;-64
2023/12/09 05:26:37;;;;;;;13.43;10.23;;;3.60;99.90;;;3.31;65.93;95024.31;5060697;28;20458;-60
2023/12/09 05:29:05;;;;;;;14.93;10.10;;;3.60;99.90;;;3.34;65.33;95029.31;5058622;28;20487;-60
2023/12/09 05:31:32;;;;;;;12.27;9.30;;;3.60;99.90;;;3.37;65.37;95031.72;5059969;28;20616;-60
2023/12/09 05:34:01;;;;;;;13.80;9.40;;;3.70;99.90;;;3.39;65.78;95032.47;5059949;28;20451;-61
2023/12/09 05:36:28;;;;;;;14.63;9.10;;;3.70;99.90;;;3.41;65.64;95031.44;5055027;28;20838;-61
2023/12/09 05:38:56;;;;;;;18.00;9.83;;;3.70;99.90;;;3.44;65.68;95034.78;5059581;28;20450;-62
2023/12/09 05:41:23;;;;;;;13.20;9.60;;;3.70;99.90;;;3.45;65.52;95034.69;5060856;28;20455;-62
2023/12/09 05:43:50;;;;;;;14.07;8.87;;;3.70;99.90;;;3.47;65.85;95035.47;5054634;28;20838;-61
2023/12/09 05:46:19;;;;;;;14.53;10.47;;;3.80;99.90;;;3.48;65.26;95039.72;5059466;28;20805;-61
2023/12/09 05:48:46;;;;;;;16.07;8.70;;;3.80;99.90;;;3.51;65.56;95036.94;5060378;28;20551;-62
2023/12/09 05:51:15;;;;;;;14.17;9.43;;;3.80;99.90;;;3.53;65.37;95042.03;5055250;28;20448;-60
2023/12/09 05:53:42;;;;;;;14.27;9.47;;;3.80;99.90;;;3.56;65.52;95047.91;5059449;28;20467;-60
2023/12/09 05:56:11;;;;;;;13.60;8.93;;;3.90;99.90;;;3.61;65.39;95049.38;5060963;28;20534;-62
2023/12/09 05:58:39;;;;;;;15.90;9.60;;;3.90;99.90;;;3.64;65.37;95037.03;5058928;28;20470;-62
2023/12/09 06:01:07;;;;;;;14.17;9.40;;;4.00;99.90;;;3.66;65.47;95039.53;5059183;28;20455;-62
2023/12/09 06:03:35;;;;;;;16.73;10.37;;;4.00;99.90;;;3.66;65.30;95037.78;5059610;28;20522;-59
2023/12/09 06:06:03;;;;;;;17.03;10.50;;;4.00;99.90;;;3.68;65.22;95046.31;5059356;28;20456;-60
2023/12/09 06:08:32;;;;;;;13.07;9.07;;;4.00;99.90;;;3.70;65.15;95046.22;5059147;28;20680;-61
2023/12/09 06:11:00;;;;;;;15.93;10.53;;;4.00;99.90;;;3.69;64.89;95042.78;5060649;28;20502;-63
2023/12/09 06:13:27;;;;;;;17.07;12.03;;;4.00;99.90;;;3.71;65.08;95050.50;5059495;28;20476;-63
2023/12/09 06:15:54;;;;;;;11.17;8.30;;;4.00;99.90;;;3.73;65.08;95052.09;5058705;28;20448;-61
2023/12/09 06:18:22;;;;;;;13.23;9.60;;;4.00;99.90;;;3.74;65.31;95051.13;5060752;28;20471;-60
2023/12/09 06:20:49;;;;;;;15.67;9.73;;;4.00;99.90;;;3.75;64.82;95052.81;5059311;28;20463;-61
2023/12/09 06:23:17;;;;;;;11.60;9.30;;;4.00;99.90;;;3.76;64.98;95057.09;5058206;28;20992;-62
2023/12/09 06:25:46;;;;;;;15.50;9.33;;;4.10;99.90;;;3.79;64.86;95056.06;5060916;28;20473;-63
2023/12/09 06:28:13;;;;;;;16.90;10.77;;;4.10;99.90;;;3.79;64.61;95056.06;5060923;28;20475;-60
2023/12/09 06:30:40;;;;;;;16.20;10.53;;;4.10;99.90;;;3.81;64.71;95051.63;5060818;28;20461;-60
2023/12/09 06:33:08;;;;;;;15.07;10.80;;;4.10;99.90;;;3.84;64.80;95058.38;5053286;28;20467;-61
2023/12/09 06:35:35;;;;;;;17.50;11.00;;;4.10;99.90;;;3.86;64.35;95056.53;5058411;28;20525;-62
2023/12/09 06:38:03;;;;;;;17.03;11.10;;;4.10;99.90;;;3.86;64.54;95057.34;5058843;28;20468;-62
2023/12/09 06:40:30;;;;;;;17.50;11.30;;;4.10;99.90;;;3.87;64.63;95063.38;5054743;28;20448;-61
2023/12/09 06:42:59;;;;;;;14.13;10.40;;;4.10;99.90;;;3.89;64.64;95067.56;5061166;28;20544;-62
2023/12/09 06:45:26;;;;;;;13.07;9.80;;;4.20;99.90;;;3.90;64.51;95066.66;5060809;28;20473;-62
2023/12/09 06:47:54;;;;;;;15.30;9.93;;;4.20;99.90;;;3.93;64.34;95071.69;5054888;28;20480;-61
2023/12/09 06:50:22;;;;;;;14.77;10.60;;;4.20;99.90;;;3.95;64.58;95066.38;5059346;28;20439;-61
2023/12/09 06:52:49;;;;;;;12.80;9.67;;;4.20;99.90;;;4.00;64.29;95068.66;5060655;28;20562;-61
2023/12/09 06:55:17;;;;;;;16.20;9.33;;;4.30;99.90;;;4.04;64.06;95070.97;5057925;28;20452;-62
2023/12/09 06:57:44;;;;;;;20.50;13.47;;;4.30;99.90;;;4.07;64.37;95069.97;5058610;28;20474;-62
2023/12/09 07:00:15;;;;;;;14.47;9.63;;;4.30;99.90;;;4.10;64.10;95073.19;5064793;28;20462;-61
2023/12/09 07:02:43;;;;;;;16.63;9.67;;;4.40;99.90;;;4.13;64.08;95074.78;5058345;28;20479;-61
2023/12/09 07:05:13;;;;;;;13.60;9.87;;;4.40;99.90;;;4.17;64.02;95078.03;5062350;28;20447;-62
2023/12/09 07:07:40;;;;;;;11.63;8.33;;;4.40;99.90;;;4.20;63.80;95075.22;5063846;28;20568;-62
2023/12/09 07:10:09;;;;;;;19.00;10.00;;;4.50;99.90;;;4.23;63.91;95082.84;5062010;28;20491;-62
2023/12/09 07:12:36;;;;;;;14.80;10.83;;;4.50;99.90;;;4.25;63.68;95088.81;5060851;28;20583;-61
2023/12/09 07:15:05;;;;;;;15.10;9.67;;;4.50;99.90;;;4.27;63.89;95092.97;5060930;28;20452;-62
2023/12/09 07:17:34;;;;;;;12.60;9.13;;;4.50;99.90;;;4.24;63.56;95080.16;5062237;28;20475;-61
2023/12/09 07:20:05;;;;;;;11.47;8.53;;;4.50;99.90;;;4.27;63.90;95079.97;5063599;28;20935;-62
2023/12/09 07:22:33;;;;;;;11.83;7.90;;;4.50;99.90;;;4.31;63.66;95083.22;5061916;28;20468;-62
2023/12/09 07:25:00;;;;;;;14.47;8.57;;;4.60;99.90;;;4.34;63.35;95082.19;5061934;28;20920;-64
2023/12/09 07:27:28;;;;;;;12.97;8.93;;;4.60;99.90;;;4.31;63.02;95083.22;5064907;28;20996;-62
2023/12/09 07:29:55;;;;;;;22.03;9.93;;;4.60;99.90;;;4.35;63.52;95086.47;5062672;28;20574;-64
2023/12/09 07:32:22;;;;;;;20.63;11.60;;;4.60;99.90;;;4.39;64.58;95093.97;5062559;28;20466;-60
2023/12/09 07:34:51;;;;;;;19.20;11.47;;;4.60;99.90;;;4.48;64.44;95093.41;5060079;28;20998;-58
2023/12/09 07:37:18;;;;;;;14.10;10.23;;;4.70;99.90;;;4.59;64.72;95092.72;5062656;28;20481;-59
2023/12/09 07:39:46;;;;;;;15.40;11.37;;;4.80;99.90;;;4.67;65.13;95103.47;5063118;28;20447;-57
2023/12/09 07:42:13;;;;;;;21.33;13.27;;;4.90;99.90;;;4.75;64.47;95104.78;5061272;28;20475;-57
2023/12/09 07:44:40;;;;;;;20.17;12.70;;;4.90;99.90;;;4.79;64.70;95114.06;5062739;28;20508;-56
2023/12/09 07:47:08;;;;;;;23.73;14.30;;;5.00;99.90;;;4.83;64.71;95111.16;5064048;28;20502;-58
2023/12/09 07:49:35;;;;;;;20.83;14.10;;;5.10;99.90;;;4.86;65.30;95104.91;5063338;28;21114;-57
2023/12/09 07:52:05;;;;;;;22.60;13.87;;;5.10;99.90;;;4.90;64.36;95105.56;5060535;28;20471;-56
2023/12/09 07:54:32;;;;;;;26.00;14.67;;;5.10;99.90;;;4.91;64.23;95112.41;5060783;28;20456;-56
2023/12/09 07:56:59;;;;;;;20.97;13.20;;;5.20;99.90;;;4.92;64.21;95109.72;5060983;28;20464;-57
2023/12/09 07:59:26;;;;;;;20.33;13.80;;;5.20;99.90;;;4.90;63.68;95109.00;5061974;28;20465;-57
2023/12/09 08:01:54;;;;;;;23.60;14.70;;;5.20;99.90;;;4.88;63.74;95110.88;5061991;28;20475;-57
2023/12/09 08:04:21;;;;;;;20.70;13.70;;;5.20;99.90;;;4.86;63.91;95110.13;5055580;28;20460;-57
2023/12/09 08:06:49;;;;;;;19.27;13.43;;;5.10;99.90;;;4.89;64.76;95116.91;5062074;28;20467;-57
2023/12/09 08:09:17;;;;;;;19.80;12.67;;;5.10;99.90;;;4.93;64.56;95116.63;5063062;28;20487;-57
2023/12/09 08:11:45;;;;;;;18.27;11.80;;;5.20;99.90;;;4.97;64.74;95128.53;5051173;28;20560;-57
2023/12/09 08:14:13;;;;;;;19.40;10.93;;;5.20;99.90;;;4.99;64.71;95124.03;5061909;28;20538;-58
2023/12/09 08:16:40;;;;;;;20.20;11.47;;;5.20;99.90;;;5.03;64.61;95128.13;5064068;28;20475;-57
2023/12/09 08:19:07;;;;;;;13.63;9.73;;;5.30;99.90;;;5.09;64.50;95123.44;5057305;28;20491;-57
2023/12/09 08:21:37;;;;;;;26.53;10.37;;;5.30;99.90;;;5.14;64.13;95123.97;5061316;28;20993;-57
2023/12/09 08:24:05;;;;;;;19.47;10.40;;;5.40;99.90;;;5.19;64.12;95129.72;5063562;28;20452;-58
2023/12/09 08:26:35;;;;;;;13.63;9.40;;;5.40;99.90;;;5.24;64.75;95125.03;5062448;28;20507;-57
2023/12/09 08:29:03;;;;;;;18.27;11.87;;;5.40;99.90;;;5.30;65.01;95129.00;5062236;28;21039;-57
2023/12/09 08:31:31;;;;;;;11.73;8.70;;;5.50;99.90;;;5.34;64.23;95126.09;5059685;28;20456;-58
2023/12/09 08:33:58;;;;;;;11.63;8.63;;;5.60;99.90;;;5.41;63.91;95126.53;5060318;28;20451;-58
2023/12/09 08:36:25;;;;;;;25.03;9.23;;;5.60;99.90;;;5.45;63.38;95137.59;5062141;28;20504;-55
2023/12/09 08:38:53;;;;;;;12.23;8.23;;;5.60;99.90;;;5.50;63.68;95127.66;5060283;28;20874;-59
2023/12/09 08:41:20;;;;;;;9.00;7.10;;;5.70;99.90;;;5.53;63.28;95123.09;5061605;28;20455;-58
2023/12/09 08:43:51;;;;;;;8.90;7.07;;;5.70;99.90;;;5.57;63.05;95124.53;5062213;28;20462;-59
2023/12/09 08:46:18;;;;;;;12.60;7.53;;;5.80;99.90;;;5.63;63.38;95125.09;5056167;28;20970;-59
2023/12/09 08:48:45;;;;;;;8.57;7.60;;;5.80;99.90;;;5.65;63.60;95126.66;5060755;28;20805;-56
2023/12/09 08:51:13;;;;;;;12.10;7.07;;;5.90;99.90;;;5.68;62.27;95129.03;5062707;28;20451;-57
2023/12/09 08:53:40;;;;;;;12.57;7.80;;;5.90;99.90;;;5.70;63.20;95126.34;5055792;28;20467;-57
2023/12/09 08:56:08;;;;;;;7.83;6.53;;;5.90;99.90;;;5.72;63.52;95125.31;5061181;28;20447;-57
2023/12/09 08:58:36;;;;;;;9.50;6.40;;;5.90;99.90;;;5.78;62.84;95124.06;5062351;28;20493;-57
2023/12/09 09:01:05;;;;;;;10.50;6.40;;;6.00;99.90;;;5.84;63.81;95126.25;5055434;28;20974;-58
2023/12/09 09:03:32;;;;;;;9.03;7.87;;;6.00;99.90;;;5.91;63.10;95129.28;5059832;28;21014;-58
2023/12/09 09:05:59;;;;;;;13.73;7.40;;;6.10;99.90;;;5.95;62.25;95115.06;5062479;28;20508;-57
2023/12/09 09:08:27;;;;;;;7.90;6.30;;;6.10;99.90;;;5.97;62.65;95118.44;5059518;28;20885;-57
2023/12/09 09:10:55;;;;;;;10.33;6.30;;;6.20;99.90;;;5.99;62.29;95123.56;5060048;28;20498;-58
2023/12/09 09:13:22;;;;;;;14.80;6.50;;;6.20;99.90;;;6.01;63.01;95125.13;5061868;28;20475;-58
2023/12/09 09:15:51;;;;;;;9.33;6.50;;;6.20;99.90;;;6.03;62.22;95128.47;5059716;28;20497;-57
2023/12/09 09:18:21;;;;;;;7.70;6.50;;;6.20;99.90;;;6.05;62.22;95121.34;5060063;28;20476;-57
2023/12/09 09:20:48;;;;;;;9.03;5.93;;;6.30;99.90;;;6.07;61.55;95113.41;5061873;28;20454;-58
2023/12/09 09:23:16;;;;;;;7.80;5.70;;;6.30;99.60;;;6.07;61.48;95098.59;5060150;28;20468;-57
2023/12/09 09:25:43;;;;;;;14.33;6.27;;;6.30;99.60;;;6.07;61.27;95103.81;5059872;28;20487;-58
2023/12/09 09:28:11;;;;;;;9.83;5.30;;;6.30;99.30;;;6.04;61.10;95104.03;5061899;28;20478;-58
2023/12/09 09:30:38;;;;;;;14.37;5.70;;;6.30;98.70;;;6.02;61.24;95100.66;5060071;28;20521;-57
2023/12/09 09:33:06;;;;;;;3.93;3.63;;;6.20;99.30;;;6.02;61.77;95095.44;5057927;28;20472;-56
2023/12/09 09:35:34;;;;;;;5.57;5.03;;;6.30;99.50;;;6.06;61.56;95090.88;5061016;28;20443;-58
2023/12/09 09:38:01;;;;;;;10.50;6.03;;;6.30;99.80;;;6.07;60.54;95080.31;5059404;28;20480;-58
2023/12/09 09:40:29;;;;;;;6.93;6.33;;;6.30;98.70;;;6.07;61.72;95075.09;5059020;28;20452;-57
2023/12/09 09:42:57;;;;;;;11.00;8.43;;;6.30;99.40;;;6.11;61.90;95067.88;5061328;28;20842;-57
2023/12/09 09:45:26;;;;;;;20.03;8.33;;;6.30;99.70;;;6.18;61.92;95068.25;5059493;28;20506;-58
2023/12/09 09:47:54;;;;;;;6.27;5.70;;;6.40;99.90;;;6.19;59.37;95069.94;5058410;28;20551;-57
2023/12/09 09:50:22;;;;;;;6.90;5.90;;;6.40;97.50;;;6.16;61.01;95070.97;5055217;28;20487;-59
2023/12/09 09:52:51;;;;;;;7.77;5.67;;;6.40;98.80;;;6.19;61.62;95069.94;5059051;28;20581;-56
2023/12/09 09:55:20;;;;;;;6.70;4.20;;;6.40;99.20;;;6.21;60.63;95076.75;5060520;28;21020;-56
2023/12/09 09:57:48;;;;;;;4.57;4.17;;;6.40;98.70;;;6.24;61.79;95073.06;5059164;28;20692;-58
2023/12/09 10:00:19;;;;;;;5.87;4.40;;;6.40;99.70;;;6.24;60.06;95073.06;5058904;28;20456;-59
2023/12/09 10:02:48;;;;;;;8.67;5.00;;;6.40;98.10;;;6.23;60.84;95077.44;5059711;28;20478;-59
2023/12/09 10:05:17;;;;;;;8.93;5.50;;;6.40;99.10;;;6.26;61.47;95079.03;5059365;28;20452;-57
2023/12/09 10:07:44;;;;;;;8.83;5.47;;;6.50;99.50;;;6.30;62.50;95084.84;5058160;28;20468;-57
2023/12/09 10:10:16;;;;;;;8.80;5.83;;;6.50;99.90;;;6.32;60.58;95081.19;5060315;28;20487;-58
2023/12/09 10:12:43;;;;;;;5.90;4.93;;;6.50;98.80;;;6.30;59.74;95071.78;5059811;28;20532;-58
2023/12/09 10:15:12;;;;;;;5.63;5.00;;;6.50;97.60;;;6.24;59.82;95067.84;5059295;28;20512;-58
2023/12/09 10:17:39;;;;;;;5.50;4.90;;;6.50;97.50;;;6.22;61.58;95077.56;5059137;28;20586;-57
2023/12/09 10:20:09;;;;;;;7.73;5.53;;;6.40;98.80;;;6.24;61.76;95075.66;5058522;28;20548;-58
2023/12/09 10:22:36;;;;;;;5.30;4.80;;;6.40;99.60;;;6.28;60.67;95074.53;5058045;28;20475;-57
2023/12/09 10:25:04;;;;;;;4.80;4.30;;;6.50;98.80;;;6.27;60.44;95067.63;5059273;28;20451;-59
2023/12/09 10:27:33;;;;;;;5.80;4.40;;;6.40;98.40;;;6.26;60.16;95066.78;5060655;28;20963;-56
2023/12/09 10:30:00;;;;;;;7.53;4.50;;;6.50;98.20;;;6.27;60.41;95070.22;5060732;28;20494;-59